Airfield :
LOGIN :

Register | Disclaimer

   EN    FR    IT 

 










Legend :    VFR   Marginal VFR   IFR   Intensive IFR   Very Intensive IFR
Visi :
Ceiling :
>= 8 km
>= 3000ft
5 to 8 km
1000 to 3000 ft
1500m to 5 km
500 to 1000 ft
800 to 1500m
200 to 500 ft
< 800m
< 200 ft
Symbols :   Thunderstorms  Fog  Heavy snow  Heavy precipitations  Wind > 20 kt
SIGMETs :     Misc.  Thunderstorms  Icing  Turbulence  Mountain Waves  Volcanic Ashes






- Airport Elevation : 36 ft
- IATA code : RIX


EVRA - Riga

CURRENT METAR :
  • 291350Z 07005KT 040V100 9999 SCT020CB BKN042 24/20 Q1017 TEMPO TS

EXPIRED METARs :
  • 291320Z 09010KT 060V130 9999 SCT025CB BKN042 24/20 Q1018 TEMPO TS
  • 291250Z 05009KT 9999 VCTS SCT030CB 26/21 Q1017 TEMPO 2000 TSRA
  • 291220Z 03004KT 340V080 9999 FEW026 SCT036CB 26/20 Q1016 RETS TEMPO 2000 TSRA
  • 291150Z 03005KT 340V080 9999 -TSRA FEW019 SCT036CB 25/17 Q1017 TEMPO 2000 TSRA
  • 291120Z 11009KT 9999 TS FEW022 SCT031CB 24/16 Q1018 TEMPO 2000 TSRA

TAF TAF EVRA
Valid from the 29 at 12:00 until the 30 at 12:00 UTC


291114Z 2912/3012 32005KT 9999 SCT040
TEMPO 2912/2918 VRB28KT 3000 TSRA BKN030CB
PROB40
TEMPO 2912/2918 VRB30KT 2000 TSRA



MET'MAP, your aeronautical weather chart ! - Copyright ORBIFLY December 2007 - Disclaimer

ORBIFLY MET'MAP TEAM :

Programming & Development : Alexandra Zaïnal
Original concept : Baudouin d'Aumeries
Technical & hardware support : Manuel Goepfert
Assistance : Marc-Olivier Méhu




SOURCES & CREDITS :

   NOAA